sensor_id;sensor_type;location;lat;lon;timestamp;P1;durP1;ratioP1;P2;durP2;ratioP2
57301;SDS011;43149;50.974;18.224;2022-09-13T00:01:22;14.10;;;9.30;;
57301;SDS011;43149;50.974;18.224;2022-09-13T00:03:48;15.90;;;8.90;;
57301;SDS011;43149;50.974;18.224;2022-09-13T00:06:15;12.70;;;9.30;;
57301;SDS011;43149;50.974;18.224;2022-09-13T00:08:43;15.90;;;8.40;;
57301;SDS011;43149;50.974;18.224;2022-09-13T00:11:16;14.00;;;8.80;;
57301;SDS011;43149;50.974;18.224;2022-09-13T00:13:47;16.30;;;9.70;;
57301;SDS011;43149;50.974;18.224;2022-09-13T00:16:14;13.60;;;9.50;;
57301;SDS011;43149;50.974;18.224;2022-09-13T00:18:41;16.10;;;9.70;;
57301;SDS011;43149;50.974;18.224;2022-09-13T00:21:08;14.10;;;9.60;;
57301;SDS011;43149;50.974;18.224;2022-09-13T00:23:35;19.90;;;9.40;;
57301;SDS011;43149;50.974;18.224;2022-09-13T00:26:09;12.10;;;9.00;;
57301;SDS011;43149;50.974;18.224;2022-09-13T00:28:36;11.70;;;8.70;;
57301;SDS011;43149;50.974;18.224;2022-09-13T00:31:03;12.50;;;9.20;;
57301;SDS011;43149;50.974;18.224;2022-09-13T00:33:30;12.00;;;8.30;;
57301;SDS011;43149;50.974;18.224;2022-09-13T00:35:57;13.30;;;8.90;;
57301;SDS011;43149;50.974;18.224;2022-09-13T00:38:23;13.30;;;8.70;;
57301;SDS011;43149;50.974;18.224;2022-09-13T00:40:49;14.80;;;10.00;;
57301;SDS011;43149;50.974;18.224;2022-09-13T00:43:16;15.00;;;9.50;;
57301;SDS011;43149;50.974;18.224;2022-09-13T00:45:43;13.30;;;8.60;;
57301;SDS011;43149;50.974;18.224;2022-09-13T00:48:14;12.60;;;8.80;;
57301;SDS011;43149;50.974;18.224;2022-09-13T00:50:46;14.50;;;9.50;;
57301;SDS011;43149;50.974;18.224;2022-09-13T00:53:20;11.40;;;9.30;;
57301;SDS011;43149;50.974;18.224;2022-09-13T00:55:57;13.80;;;8.90;;
57301;SDS011;43149;50.974;18.224;2022-09-13T00:58:45;13.70;;;8.30;;
57301;SDS011;43149;50.974;18.224;2022-09-13T01:01:13;14.80;;;9.30;;
57301;SDS011;43149;50.974;18.224;2022-09-13T01:03:40;16.60;;;8.30;;
57301;SDS011;43149;50.974;18.224;2022-09-13T01:06:10;9.30;;;7.70;;
57301;SDS011;43149;50.974;18.224;2022-09-13T01:08:39;11.00;;;8.10;;
57301;SDS011;43149;50.974;18.224;2022-09-13T01:11:10;13.00;;;8.10;;
57301;SDS011;43149;50.974;18.224;2022-09-13T01:13:50;16.30;;;9.00;;
57301;SDS011;43149;50.974;18.224;2022-09-13T01:16:15;11.90;;;8.40;;
57301;SDS011;43149;50.974;18.224;2022-09-13T01:18:42;9.80;;;8.30;;
57301;SDS011;43149;50.974;18.224;2022-09-13T01:24:03;12.60;;;8.40;;
57301;SDS011;43149;50.974;18.224;2022-09-13T01:51:13;14.80;;;8.80;;
57301;SDS011;43149;50.974;18.224;2022-09-13T01:53:49;41.60;;;10.40;;
57301;SDS011;43149;50.974;18.224;2022-09-13T01:56:22;87.60;;;10.80;;
57301;SDS011;43149;50.974;18.224;2022-09-13T02:09:33;20.20;;;9.60;;
57301;SDS011;43149;50.974;18.224;2022-09-13T02:12:05;17.30;;;9.60;;
57301;SDS011;43149;50.974;18.224;2022-09-13T02:14:42;38.90;;;10.00;;
57301;SDS011;43149;50.974;18.224;2022-09-13T02:17:11;16.20;;;9.90;;
57301;SDS011;43149;50.974;18.224;2022-09-13T02:19:40;16.30;;;9.10;;
57301;SDS011;43149;50.974;18.224;2022-09-13T02:22:08;22.70;;;9.60;;
57301;SDS011;43149;50.974;18.224;2022-09-13T02:24:38;21.90;;;10.30;;
57301;SDS011;43149;50.974;18.224;2022-09-13T02:27:11;132.30;;;11.40;;
57301;SDS011;43149;50.974;18.224;2022-09-13T02:29:41;169.30;;;12.60;;
57301;SDS011;43149;50.974;18.224;2022-09-13T02:34:41;328.80;;;14.00;;
57301;SDS011;43149;50.974;18.224;2022-09-13T02:37:10;330.70;;;14.20;;
57301;SDS011;43149;50.974;18.224;2022-09-13T02:39:40;131.80;;;10.40;;
57301;SDS011;43149;50.974;18.224;2022-09-13T02:42:16;16.00;;;11.10;;
57301;SDS011;43149;50.974;18.224;2022-09-13T02:44:45;74.20;;;47.20;;
57301;SDS011;43149;50.974;18.224;2022-09-13T02:47:27;12.70;;;10.30;;
57301;SDS011;43149;50.974;18.224;2022-09-13T03:01:21;14.40;;;10.70;;
57301;SDS011;43149;50.974;18.224;2022-09-13T03:03:47;14.20;;;11.20;;
57301;SDS011;43149;50.974;18.224;2022-09-13T03:06:20;20.40;;;14.80;;
57301;SDS011;43149;50.974;18.224;2022-09-13T03:08:50;22.50;;;18.30;;
57301;SDS011;43149;50.974;18.224;2022-09-13T03:11:26;21.10;;;18.20;;
57301;SDS011;43149;50.974;18.224;2022-09-13T03:17:04;21.60;;;15.80;;
57301;SDS011;43149;50.974;18.224;2022-09-13T03:30:00;18.40;;;14.60;;
57301;SDS011;43149;50.974;18.224;2022-09-13T03:32:46;22.70;;;12.90;;
57301;SDS011;43149;50.974;18.224;2022-09-13T03:37:54;17.50;;;13.60;;
57301;SDS011;43149;50.974;18.224;2022-09-13T03:43:05;59.50;;;17.20;;
57301;SDS011;43149;50.974;18.224;2022-09-13T03:45:37;64.60;;;16.60;;
57301;SDS011;43149;50.974;18.224;2022-09-13T03:48:06;68.20;;;16.60;;
57301;SDS011;43149;50.974;18.224;2022-09-13T03:50:32;51.80;;;15.10;;
57301;SDS011;43149;50.974;18.224;2022-09-13T03:53:03;54.00;;;15.10;;
57301;SDS011;43149;50.974;18.224;2022-09-13T03:55:31;26.50;;;14.10;;
57301;SDS011;43149;50.974;18.224;2022-09-13T03:57:58;39.10;;;14.30;;
57301;SDS011;43149;50.974;18.224;2022-09-13T04:00:24;38.70;;;14.10;;
57301;SDS011;43149;50.974;18.224;2022-09-13T04:02:50;29.00;;;13.60;;
57301;SDS011;43149;50.974;18.224;2022-09-13T04:05:16;19.70;;;13.60;;
57301;SDS011;43149;50.974;18.224;2022-09-13T04:07:42;23.60;;;14.10;;
57301;SDS011;43149;50.974;18.224;2022-09-13T04:10:08;22.20;;;13.60;;
57301;SDS011;43149;50.974;18.224;2022-09-13T04:12:34;20.70;;;12.00;;
57301;SDS011;43149;50.974;18.224;2022-09-13T04:15:00;23.40;;;12.30;;
57301;SDS011;43149;50.974;18.224;2022-09-13T04:17:26;20.70;;;12.80;;
57301;SDS011;43149;50.974;18.224;2022-09-13T04:19:53;24.30;;;13.10;;
57301;SDS011;43149;50.974;18.224;2022-09-13T04:22:19;15.50;;;11.10;;
57301;SDS011;43149;50.974;18.224;2022-09-13T04:24:44;13.70;;;11.30;;
57301;SDS011;43149;50.974;18.224;2022-09-13T04:27:11;14.50;;;11.10;;
57301;SDS011;43149;50.974;18.224;2022-09-13T04:29:40;15.30;;;11.80;;
57301;SDS011;43149;50.974;18.224;2022-09-13T04:32:06;13.10;;;11.10;;
57301;SDS011;43149;50.974;18.224;2022-09-13T04:34:31;374.30;;;16.40;;
57301;SDS011;43149;50.974;18.224;2022-09-13T04:36:57;445.00;;;19.60;;
57301;SDS011;43149;50.974;18.224;2022-09-13T04:39:23;347.00;;;16.40;;
57301;SDS011;43149;50.974;18.224;2022-09-13T04:41:49;302.80;;;16.00;;
57301;SDS011;43149;50.974;18.224;2022-09-13T04:44:16;47.80;;;12.40;;
57301;SDS011;43149;50.974;18.224;2022-09-13T04:46:43;65.50;;;13.40;;
57301;SDS011;43149;50.974;18.224;2022-09-13T04:49:13;22.70;;;11.50;;
57301;SDS011;43149;50.974;18.224;2022-09-13T04:51:39;17.80;;;11.10;;
57301;SDS011;43149;50.974;18.224;2022-09-13T04:54:05;16.20;;;10.80;;
57301;SDS011;43149;50.974;18.224;2022-09-13T04:56:31;12.50;;;10.70;;
57301;SDS011;43149;50.974;18.224;2022-09-13T04:58:57;18.90;;;10.40;;
57301;SDS011;43149;50.974;18.224;2022-09-13T05:01:23;14.40;;;10.20;;
57301;SDS011;43149;50.974;18.224;2022-09-13T05:03:49;11.90;;;10.20;;
57301;SDS011;43149;50.974;18.224;2022-09-13T05:06:18;16.70;;;11.10;;
57301;SDS011;43149;50.974;18.224;2022-09-13T05:08:52;16.50;;;11.40;;
57301;SDS011;43149;50.974;18.224;2022-09-13T05:11:28;11.40;;;9.80;;
57301;SDS011;43149;50.974;18.224;2022-09-13T05:13:57;14.20;;;9.90;;
57301;SDS011;43149;50.974;18.224;2022-09-13T05:16:25;11.50;;;9.90;;
57301;SDS011;43149;50.974;18.224;2022-09-13T05:18:52;30.30;;;19.10;;
57301;SDS011;43149;50.974;18.224;2022-09-13T05:21:19;17.70;;;13.20;;
57301;SDS011;43149;50.974;18.224;2022-09-13T05:23:49;13.30;;;10.50;;
57301;SDS011;43149;50.974;18.224;2022-09-13T05:26:16;14.10;;;10.50;;
57301;SDS011;43149;50.974;18.224;2022-09-13T05:28:42;15.00;;;10.70;;
57301;SDS011;43149;50.974;18.224;2022-09-13T05:31:18;13.00;;;10.30;;
57301;SDS011;43149;50.974;18.224;2022-09-13T05:33:47;12.70;;;10.60;;
57301;SDS011;43149;50.974;18.224;2022-09-13T05:36:16;17.00;;;10.20;;
57301;SDS011;43149;50.974;18.224;2022-09-13T05:38:42;12.90;;;10.40;;
57301;SDS011;43149;50.974;18.224;2022-09-13T05:41:08;12.00;;;9.80;;
57301;SDS011;43149;50.974;18.224;2022-09-13T05:43:35;11.00;;;8.90;;
57301;SDS011;43149;50.974;18.224;2022-09-13T05:46:02;34.10;;;28.20;;
57301;SDS011;43149;50.974;18.224;2022-09-13T05:48:30;15.90;;;10.60;;
57301;SDS011;43149;50.974;18.224;2022-09-13T05:50:58;14.10;;;10.30;;
57301;SDS011;43149;50.974;18.224;2022-09-13T05:53:38;13.40;;;8.70;;
57301;SDS011;43149;50.974;18.224;2022-09-13T05:56:06;13.10;;;8.90;;
57301;SDS011;43149;50.974;18.224;2022-09-13T05:58:33;13.90;;;8.60;;
57301;SDS011;43149;50.974;18.224;2022-09-13T06:01:00;11.80;;;8.00;;
57301;SDS011;43149;50.974;18.224;2022-09-13T06:03:26;14.90;;;7.60;;
57301;SDS011;43149;50.974;18.224;2022-09-13T06:05:55;14.20;;;8.80;;
57301;SDS011;43149;50.974;18.224;2022-09-13T06:08:22;12.40;;;8.30;;
57301;SDS011;43149;50.974;18.224;2022-09-13T06:13:27;13.30;;;8.40;;
57301;SDS011;43149;50.974;18.224;2022-09-13T06:15:54;11.80;;;7.10;;
57301;SDS011;43149;50.974;18.224;2022-09-13T06:18:20;8.70;;;7.80;;
57301;SDS011;43149;50.974;18.224;2022-09-13T06:20:47;11.00;;;7.50;;
57301;SDS011;43149;50.974;18.224;2022-09-13T06:23:13;10.90;;;7.90;;
57301;SDS011;43149;50.974;18.224;2022-09-13T06:25:39;13.00;;;9.70;;
57301;SDS011;43149;50.974;18.224;2022-09-13T06:28:06;12.20;;;10.30;;
57301;SDS011;43149;50.974;18.224;2022-09-13T06:30:32;13.70;;;8.50;;
57301;SDS011;43149;50.974;18.224;2022-09-13T06:32:58;13.80;;;8.10;;
57301;SDS011;43149;50.974;18.224;2022-09-13T06:35:24;9.80;;;8.40;;
57301;SDS011;43149;50.974;18.224;2022-09-13T06:37:50;13.20;;;8.90;;
57301;SDS011;43149;50.974;18.224;2022-09-13T06:40:16;15.90;;;8.20;;
57301;SDS011;43149;50.974;18.224;2022-09-13T06:42:42;13.10;;;8.30;;
57301;SDS011;43149;50.974;18.224;2022-09-13T06:45:08;16.20;;;8.60;;
57301;SDS011;43149;50.974;18.224;2022-09-13T06:47:34;10.60;;;8.20;;
57301;SDS011;43149;50.974;18.224;2022-09-13T06:50:00;16.10;;;10.40;;
57301;SDS011;43149;50.974;18.224;2022-09-13T06:52:26;13.50;;;8.90;;
57301;SDS011;43149;50.974;18.224;2022-09-13T06:54:53;11.40;;;8.30;;
57301;SDS011;43149;50.974;18.224;2022-09-13T06:57:19;13.30;;;8.60;;
57301;SDS011;43149;50.974;18.224;2022-09-13T06:59:45;10.20;;;8.80;;
57301;SDS011;43149;50.974;18.224;2022-09-13T07:02:11;8.80;;;7.70;;
57301;SDS011;43149;50.974;18.224;2022-09-13T07:04:38;11.20;;;8.00;;
57301;SDS011;43149;50.974;18.224;2022-09-13T07:07:04;13.30;;;7.80;;
57301;SDS011;43149;50.974;18.224;2022-09-13T07:09:30;8.80;;;7.00;;
57301;SDS011;43149;50.974;18.224;2022-09-13T07:11:56;10.70;;;8.00;;
57301;SDS011;43149;50.974;18.224;2022-09-13T07:14:24;16.80;;;7.40;;
57301;SDS011;43149;50.974;18.224;2022-09-13T07:16:51;9.00;;;7.00;;
57301;SDS011;43149;50.974;18.224;2022-09-13T07:19:19;12.00;;;7.10;;
57301;SDS011;43149;50.974;18.224;2022-09-13T07:21:50;10.90;;;7.80;;
57301;SDS011;43149;50.974;18.224;2022-09-13T07:24:16;11.30;;;7.40;;
57301;SDS011;43149;50.974;18.224;2022-09-13T07:26:42;8.30;;;6.40;;
57301;SDS011;43149;50.974;18.224;2022-09-13T07:29:10;11.10;;;6.90;;
57301;SDS011;43149;50.974;18.224;2022-09-13T07:31:40;8.60;;;6.90;;
57301;SDS011;43149;50.974;18.224;2022-09-13T07:34:10;10.60;;;6.70;;
57301;SDS011;43149;50.974;18.224;2022-09-13T07:36:45;11.10;;;6.20;;
57301;SDS011;43149;50.974;18.224;2022-09-13T07:39:12;9.60;;;6.70;;
57301;SDS011;43149;50.974;18.224;2022-09-13T07:41:39;10.30;;;7.60;;
57301;SDS011;43149;50.974;18.224;2022-09-13T07:44:05;9.80;;;7.10;;
57301;SDS011;43149;50.974;18.224;2022-09-13T07:46:33;10.30;;;7.60;;
57301;SDS011;43149;50.974;18.224;2022-09-13T07:49:08;17.00;;;8.70;;
57301;SDS011;43149;50.974;18.224;2022-09-13T07:51:39;9.20;;;6.60;;
57301;SDS011;43149;50.974;18.224;2022-09-13T07:54:08;8.90;;;6.40;;
57301;SDS011;43149;50.974;18.224;2022-09-13T07:56:37;8.60;;;6.50;;
57301;SDS011;43149;50.974;18.224;2022-09-13T07:59:05;9.10;;;6.80;;
57301;SDS011;43149;50.974;18.224;2022-09-13T08:01:35;12.40;;;7.40;;
57301;SDS011;43149;50.974;18.224;2022-09-13T08:04:09;9.50;;;7.20;;
57301;SDS011;43149;50.974;18.224;2022-09-13T08:06:36;12.30;;;7.70;;
57301;SDS011;43149;50.974;18.224;2022-09-13T08:09:04;7.40;;;5.80;;
57301;SDS011;43149;50.974;18.224;2022-09-13T08:11:32;8.50;;;5.90;;
57301;SDS011;43149;50.974;18.224;2022-09-13T08:13:59;8.80;;;6.20;;
57301;SDS011;43149;50.974;18.224;2022-09-13T08:16:25;9.50;;;5.90;;
57301;SDS011;43149;50.974;18.224;2022-09-13T08:18:54;6.40;;;5.40;;
57301;SDS011;43149;50.974;18.224;2022-09-13T08:21:22;8.60;;;5.10;;
57301;SDS011;43149;50.974;18.224;2022-09-13T08:23:48;7.20;;;4.10;;
57301;SDS011;43149;50.974;18.224;2022-09-13T08:26:15;7.60;;;4.80;;
57301;SDS011;43149;50.974;18.224;2022-09-13T08:28:41;10.20;;;4.90;;
57301;SDS011;43149;50.974;18.224;2022-09-13T08:33:33;8.90;;;4.50;;
57301;SDS011;43149;50.974;18.224;2022-09-13T08:36:00;7.50;;;4.30;;
57301;SDS011;43149;50.974;18.224;2022-09-13T08:38:27;4.30;;;3.40;;
57301;SDS011;43149;50.974;18.224;2022-09-13T08:40:55;9.20;;;4.00;;
57301;SDS011;43149;50.974;18.224;2022-09-13T08:43:34;10.40;;;5.70;;
57301;SDS011;43149;50.974;18.224;2022-09-13T08:46:20;6.00;;;4.30;;
57301;SDS011;43149;50.974;18.224;2022-09-13T08:48:59;10.80;;;5.50;;
57301;SDS011;43149;50.974;18.224;2022-09-13T08:53:59;12.40;;;8.80;;
57301;SDS011;43149;50.974;18.224;2022-09-13T08:56:28;7.90;;;6.00;;
57301;SDS011;43149;50.974;18.224;2022-09-13T09:07:15;4.80;;;3.90;;
57301;SDS011;43149;50.974;18.224;2022-09-13T09:12:21;22.50;;;14.10;;
57301;SDS011;43149;50.974;18.224;2022-09-13T09:14:57;7.20;;;4.40;;
57301;SDS011;43149;50.974;18.224;2022-09-13T09:17:27;9.30;;;4.80;;
57301;SDS011;43149;50.974;18.224;2022-09-13T09:20:01;9.10;;;5.10;;
57301;SDS011;43149;50.974;18.224;2022-09-13T09:22:33;5.90;;;4.40;;
57301;SDS011;43149;50.974;18.224;2022-09-13T09:25:00;4.40;;;3.60;;
57301;SDS011;43149;50.974;18.224;2022-09-13T09:27:28;6.20;;;4.00;;
57301;SDS011;43149;50.974;18.224;2022-09-13T09:29:55;4.70;;;4.10;;
57301;SDS011;43149;50.974;18.224;2022-09-13T09:37:40;4.10;;;3.50;;
57301;SDS011;43149;50.974;18.224;2022-09-13T09:40:11;5.30;;;3.80;;
57301;SDS011;43149;50.974;18.224;2022-09-13T09:42:41;5.20;;;3.50;;
57301;SDS011;43149;50.974;18.224;2022-09-13T09:45:32;6.40;;;4.90;;
57301;SDS011;43149;50.974;18.224;2022-09-13T09:48:00;10.20;;;4.30;;
57301;SDS011;43149;50.974;18.224;2022-09-13T09:50:31;6.90;;;5.00;;
57301;SDS011;43149;50.974;18.224;2022-09-13T09:53:05;10.00;;;4.70;;
57301;SDS011;43149;50.974;18.224;2022-09-13T10:00:48;5.40;;;3.90;;
57301;SDS011;43149;50.974;18.224;2022-09-13T10:03:20;5.20;;;3.40;;
57301;SDS011;43149;50.974;18.224;2022-09-13T10:05:50;5.60;;;3.20;;
57301;SDS011;43149;50.974;18.224;2022-09-13T10:08:27;7.00;;;3.50;;
57301;SDS011;43149;50.974;18.224;2022-09-13T10:10:58;3.40;;;2.90;;
57301;SDS011;43149;50.974;18.224;2022-09-13T10:13:25;5.50;;;4.00;;
57301;SDS011;43149;50.974;18.224;2022-09-13T10:15:58;5.00;;;3.50;;
57301;SDS011;43149;50.974;18.224;2022-09-13T10:18:29;5.20;;;2.80;;
57301;SDS011;43149;50.974;18.224;2022-09-13T10:21:06;4.30;;;2.70;;
57301;SDS011;43149;50.974;18.224;2022-09-13T10:23:42;6.20;;;3.10;;
57301;SDS011;43149;50.974;18.224;2022-09-13T10:26:10;5.50;;;2.70;;
57301;SDS011;43149;50.974;18.224;2022-09-13T10:31:34;4.50;;;3.20;;
57301;SDS011;43149;50.974;18.224;2022-09-13T10:34:01;5.80;;;2.90;;
57301;SDS011;43149;50.974;18.224;2022-09-13T10:36:53;4.50;;;2.60;;
57301;SDS011;43149;50.974;18.224;2022-09-13T10:39:22;3.90;;;2.60;;
57301;SDS011;43149;50.974;18.224;2022-09-13T10:46:55;5.80;;;3.50;;
57301;SDS011;43149;50.974;18.224;2022-09-13T10:52:32;5.60;;;2.70;;
57301;SDS011;43149;50.974;18.224;2022-09-13T10:55:21;3.80;;;2.40;;
57301;SDS011;43149;50.974;18.224;2022-09-13T11:11:51;6.20;;;3.40;;
57301;SDS011;43149;50.974;18.224;2022-09-13T11:28:35;5.30;;;3.50;;
57301;SDS011;43149;50.974;18.224;2022-09-13T11:31:45;5.90;;;3.70;;
57301;SDS011;43149;50.974;18.224;2022-09-13T11:43:42;6.40;;;3.90;;
57301;SDS011;43149;50.974;18.224;2022-09-13T11:46:56;6.00;;;4.00;;
57301;SDS011;43149;50.974;18.224;2022-09-13T11:57:51;4.60;;;3.40;;
57301;SDS011;43149;50.974;18.224;2022-09-13T12:00:19;10.30;;;3.70;;
57301;SDS011;43149;50.974;18.224;2022-09-13T12:02:51;7.20;;;3.60;;
57301;SDS011;43149;50.974;18.224;2022-09-13T12:05:23;3.50;;;3.20;;
57301;SDS011;43149;50.974;18.224;2022-09-13T12:13:19;5.90;;;3.10;;
57301;SDS011;43149;50.974;18.224;2022-09-13T12:16:07;2.80;;;2.60;;
57301;SDS011;43149;50.974;18.224;2022-09-13T12:18:39;6.10;;;3.50;;
57301;SDS011;43149;50.974;18.224;2022-09-13T12:21:12;6.00;;;3.10;;
57301;SDS011;43149;50.974;18.224;2022-09-13T12:23:49;5.40;;;3.00;;
57301;SDS011;43149;50.974;18.224;2022-09-13T12:29:08;6.30;;;3.70;;
57301;SDS011;43149;50.974;18.224;2022-09-13T12:31:39;4.70;;;3.20;;
57301;SDS011;43149;50.974;18.224;2022-09-13T12:34:05;6.50;;;4.20;;
57301;SDS011;43149;50.974;18.224;2022-09-13T12:36:38;7.80;;;3.50;;
57301;SDS011;43149;50.974;18.224;2022-09-13T12:39:34;4.90;;;3.40;;
57301;SDS011;43149;50.974;18.224;2022-09-13T12:54:32;12.10;;;10.00;;
57301;SDS011;43149;50.974;18.224;2022-09-13T12:57:11;7.90;;;2.90;;
57301;SDS011;43149;50.974;18.224;2022-09-13T13:05:44;9.60;;;2.80;;
57301;SDS011;43149;50.974;18.224;2022-09-13T13:08:21;4.00;;;2.70;;
57301;SDS011;43149;50.974;18.224;2022-09-13T13:11:13;5.70;;;3.00;;
57301;SDS011;43149;50.974;18.224;2022-09-13T13:13:42;5.40;;;3.10;;
57301;SDS011;43149;50.974;18.224;2022-09-13T13:16:22;4.00;;;2.30;;
57301;SDS011;43149;50.974;18.224;2022-09-13T13:18:53;4.10;;;2.40;;
57301;SDS011;43149;50.974;18.224;2022-09-13T13:21:25;3.50;;;2.40;;
57301;SDS011;43149;50.974;18.224;2022-09-13T13:29:15;3.20;;;2.20;;
57301;SDS011;43149;50.974;18.224;2022-09-13T13:36:59;4.60;;;2.80;;
57301;SDS011;43149;50.974;18.224;2022-09-13T13:49:44;4.40;;;3.20;;
57301;SDS011;43149;50.974;18.224;2022-09-13T13:57:22;277.60;;;197.30;;
57301;SDS011;43149;50.974;18.224;2022-09-13T14:05:07;4.00;;;2.40;;
57301;SDS011;43149;50.974;18.224;2022-09-13T14:10:23;3.10;;;2.60;;
57301;SDS011;43149;50.974;18.224;2022-09-13T14:18:20;3.40;;;2.70;;
57301;SDS011;43149;50.974;18.224;2022-09-13T14:21:22;5.60;;;3.80;;
57301;SDS011;43149;50.974;18.224;2022-09-13T14:29:18;3.70;;;2.30;;
57301;SDS011;43149;50.974;18.224;2022-09-13T14:31:49;3.60;;;2.20;;
57301;SDS011;43149;50.974;18.224;2022-09-13T14:37:05;4.00;;;2.60;;
57301;SDS011;43149;50.974;18.224;2022-09-13T14:39:51;6.60;;;3.40;;
57301;SDS011;43149;50.974;18.224;2022-09-13T14:42:25;5.50;;;2.90;;
57301;SDS011;43149;50.974;18.224;2022-09-13T14:45:01;7.60;;;3.10;;
57301;SDS011;43149;50.974;18.224;2022-09-13T14:47:29;4.80;;;2.90;;
57301;SDS011;43149;50.974;18.224;2022-09-13T14:50:06;2.90;;;2.60;;
57301;SDS011;43149;50.974;18.224;2022-09-13T14:52:39;3.00;;;2.70;;
57301;SDS011;43149;50.974;18.224;2022-09-13T14:55:12;5.50;;;3.10;;
57301;SDS011;43149;50.974;18.224;2022-09-13T14:57:42;4.00;;;2.90;;
57301;SDS011;43149;50.974;18.224;2022-09-13T15:05:49;5.70;;;3.10;;
57301;SDS011;43149;50.974;18.224;2022-09-13T15:11:01;5.40;;;2.90;;
57301;SDS011;43149;50.974;18.224;2022-09-13T15:13:29;3.50;;;3.20;;
57301;SDS011;43149;50.974;18.224;2022-09-13T15:15:55;6.30;;;3.40;;
57301;SDS011;43149;50.974;18.224;2022-09-13T15:18:31;7.90;;;4.60;;
57301;SDS011;43149;50.974;18.224;2022-09-13T15:20:58;6.90;;;4.60;;
57301;SDS011;43149;50.974;18.224;2022-09-13T15:26:07;5.50;;;5.00;;
57301;SDS011;43149;50.974;18.224;2022-09-13T15:31:05;9.40;;;5.60;;
57301;SDS011;43149;50.974;18.224;2022-09-13T15:33:32;7.30;;;4.70;;
57301;SDS011;43149;50.974;18.224;2022-09-13T15:41:30;7.80;;;4.60;;
57301;SDS011;43149;50.974;18.224;2022-09-13T15:44:07;5.60;;;4.50;;
57301;SDS011;43149;50.974;18.224;2022-09-13T15:46:35;9.20;;;5.50;;
57301;SDS011;43149;50.974;18.224;2022-09-13T15:49:08;8.90;;;4.10;;
57301;SDS011;43149;50.974;18.224;2022-09-13T15:51:41;8.60;;;4.40;;
57301;SDS011;43149;50.974;18.224;2022-09-13T15:54:11;6.30;;;3.40;;
57301;SDS011;43149;50.974;18.224;2022-09-13T15:56:37;4.20;;;3.60;;
57301;SDS011;43149;50.974;18.224;2022-09-13T15:59:07;4.90;;;3.50;;
57301;SDS011;43149;50.974;18.224;2022-09-13T16:01:36;8.10;;;4.20;;
57301;SDS011;43149;50.974;18.224;2022-09-13T16:04:02;5.20;;;4.30;;
57301;SDS011;43149;50.974;18.224;2022-09-13T16:06:32;8.20;;;6.00;;
57301;SDS011;43149;50.974;18.224;2022-09-13T16:08:59;7.60;;;4.30;;
57301;SDS011;43149;50.974;18.224;2022-09-13T16:11:25;6.10;;;4.60;;
57301;SDS011;43149;50.974;18.224;2022-09-13T16:13:51;6.10;;;4.50;;
57301;SDS011;43149;50.974;18.224;2022-09-13T16:16:17;7.70;;;4.80;;
57301;SDS011;43149;50.974;18.224;2022-09-13T16:18:43;7.00;;;4.50;;
57301;SDS011;43149;50.974;18.224;2022-09-13T16:21:09;9.70;;;4.80;;
57301;SDS011;43149;50.974;18.224;2022-09-13T16:23:35;7.30;;;4.60;;
57301;SDS011;43149;50.974;18.224;2022-09-13T16:26:00;8.80;;;4.30;;
57301;SDS011;43149;50.974;18.224;2022-09-13T16:28:26;6.50;;;4.60;;
57301;SDS011;43149;50.974;18.224;2022-09-13T16:30:52;6.20;;;5.20;;
57301;SDS011;43149;50.974;18.224;2022-09-13T16:33:18;14.40;;;6.20;;
57301;SDS011;43149;50.974;18.224;2022-09-13T16:35:45;10.30;;;7.00;;
57301;SDS011;43149;50.974;18.224;2022-09-13T16:38:11;7.50;;;5.10;;
57301;SDS011;43149;50.974;18.224;2022-09-13T16:40:40;5.90;;;4.60;;
57301;SDS011;43149;50.974;18.224;2022-09-13T16:43:08;6.10;;;5.10;;
57301;SDS011;43149;50.974;18.224;2022-09-13T16:45:36;7.70;;;4.60;;
57301;SDS011;43149;50.974;18.224;2022-09-13T16:48:03;7.80;;;4.90;;
57301;SDS011;43149;50.974;18.224;2022-09-13T16:50:29;6.90;;;5.00;;
57301;SDS011;43149;50.974;18.224;2022-09-13T16:52:55;6.90;;;4.80;;
57301;SDS011;43149;50.974;18.224;2022-09-13T16:55:21;5.20;;;4.70;;
57301;SDS011;43149;50.974;18.224;2022-09-13T16:57:48;10.10;;;5.80;;
57301;SDS011;43149;50.974;18.224;2022-09-13T17:00:16;6.00;;;4.90;;
57301;SDS011;43149;50.974;18.224;2022-09-13T17:02:45;12.40;;;6.00;;
57301;SDS011;43149;50.974;18.224;2022-09-13T17:05:11;16.10;;;11.40;;
57301;SDS011;43149;50.974;18.224;2022-09-13T17:07:37;10.20;;;6.30;;
57301;SDS011;43149;50.974;18.224;2022-09-13T17:10:04;9.20;;;7.40;;
57301;SDS011;43149;50.974;18.224;2022-09-13T17:12:32;11.90;;;8.40;;
57301;SDS011;43149;50.974;18.224;2022-09-13T17:14:58;13.60;;;7.30;;
57301;SDS011;43149;50.974;18.224;2022-09-13T17:17:24;9.10;;;6.40;;
57301;SDS011;43149;50.974;18.224;2022-09-13T17:19:50;12.90;;;8.40;;
57301;SDS011;43149;50.974;18.224;2022-09-13T17:22:16;10.10;;;7.70;;
57301;SDS011;43149;50.974;18.224;2022-09-13T17:24:43;7.40;;;6.20;;
57301;SDS011;43149;50.974;18.224;2022-09-13T17:27:09;7.40;;;6.00;;
57301;SDS011;43149;50.974;18.224;2022-09-13T17:29:35;10.30;;;5.90;;
57301;SDS011;43149;50.974;18.224;2022-09-13T17:32:02;10.90;;;6.80;;
57301;SDS011;43149;50.974;18.224;2022-09-13T17:34:30;9.50;;;5.40;;
57301;SDS011;43149;50.974;18.224;2022-09-13T17:36:58;11.70;;;6.30;;
57301;SDS011;43149;50.974;18.224;2022-09-13T17:39:24;8.00;;;5.30;;
57301;SDS011;43149;50.974;18.224;2022-09-13T17:41:50;9.50;;;5.50;;
57301;SDS011;43149;50.974;18.224;2022-09-13T17:44:16;9.80;;;5.50;;
57301;SDS011;43149;50.974;18.224;2022-09-13T17:46:42;14.00;;;7.20;;
57301;SDS011;43149;50.974;18.224;2022-09-13T17:49:08;8.30;;;6.10;;
57301;SDS011;43149;50.974;18.224;2022-09-13T17:51:34;11.10;;;6.30;;
57301;SDS011;43149;50.974;18.224;2022-09-13T17:54:04;9.00;;;6.60;;
57301;SDS011;43149;50.974;18.224;2022-09-13T17:56:32;9.10;;;6.20;;
57301;SDS011;43149;50.974;18.224;2022-09-13T18:01:39;11.30;;;7.20;;
57301;SDS011;43149;50.974;18.224;2022-09-13T18:04:06;8.40;;;5.90;;
57301;SDS011;43149;50.974;18.224;2022-09-13T18:06:33;10.20;;;7.10;;
57301;SDS011;43149;50.974;18.224;2022-09-13T18:08:59;8.10;;;6.00;;
57301;SDS011;43149;50.974;18.224;2022-09-13T18:11:26;16.20;;;7.20;;
57301;SDS011;43149;50.974;18.224;2022-09-13T18:13:52;8.20;;;6.10;;
57301;SDS011;43149;50.974;18.224;2022-09-13T18:16:19;16.80;;;9.90;;
57301;SDS011;43149;50.974;18.224;2022-09-13T18:18:47;11.00;;;6.80;;
57301;SDS011;43149;50.974;18.224;2022-09-13T18:21:14;14.80;;;10.40;;
57301;SDS011;43149;50.974;18.224;2022-09-13T18:23:42;11.70;;;7.60;;
57301;SDS011;43149;50.974;18.224;2022-09-13T18:26:10;11.90;;;7.40;;
57301;SDS011;43149;50.974;18.224;2022-09-13T18:28:37;13.90;;;11.30;;
57301;SDS011;43149;50.974;18.224;2022-09-13T18:31:04;11.60;;;8.40;;
57301;SDS011;43149;50.974;18.224;2022-09-13T18:33:33;16.20;;;10.60;;
57301;SDS011;43149;50.974;18.224;2022-09-13T18:36:00;17.80;;;11.30;;
57301;SDS011;43149;50.974;18.224;2022-09-13T18:38:29;14.40;;;8.90;;
57301;SDS011;43149;50.974;18.224;2022-09-13T18:43:25;11.50;;;8.80;;
57301;SDS011;43149;50.974;18.224;2022-09-13T18:45:57;13.50;;;9.40;;
57301;SDS011;43149;50.974;18.224;2022-09-13T18:48:28;14.90;;;9.60;;
57301;SDS011;43149;50.974;18.224;2022-09-13T18:50:55;14.70;;;8.90;;
57301;SDS011;43149;50.974;18.224;2022-09-13T18:53:22;12.50;;;8.20;;